sensor_id;sensor_type;location;lat;lon;timestamp;pressure;altitude;pressure_sealevel;temperature;humidity
36980;BME280;22891;50.562;7.272;2023-02-01T00:00:16;100098.00;;;4.28;nan
36980;BME280;22891;50.562;7.272;2023-02-01T00:02:42;100092.00;;;4.34;nan
36980;BME280;22891;50.562;7.272;2023-02-01T00:05:08;100101.00;;;4.23;nan
36980;BME280;22891;50.562;7.272;2023-02-01T00:07:35;100099.00;;;4.28;nan
36980;BME280;22891;50.562;7.272;2023-02-01T00:10:01;100080.00;;;4.13;nan
36980;BME280;22891;50.562;7.272;2023-02-01T00:12:28;100088.00;;;4.28;nan
36980;BME280;22891;50.562;7.272;2023-02-01T00:14:54;100085.00;;;4.22;nan
36980;BME280;22891;50.562;7.272;2023-02-01T00:17:20;100087.00;;;4.32;nan
36980;BME280;22891;50.562;7.272;2023-02-01T00:19:45;100098.00;;;4.12;nan
36980;BME280;22891;50.562;7.272;2023-02-01T00:22:11;100102.00;;;4.18;nan
36980;BME280;22891;50.562;7.272;2023-02-01T00:24:37;100093.00;;;4.11;nan
36980;BME280;22891;50.562;7.272;2023-02-01T00:27:02;100088.00;;;3.98;nan
36980;BME280;22891;50.562;7.272;2023-02-01T00:29:28;100097.00;;;4.02;nan
36980;BME280;22891;50.562;7.272;2023-02-01T00:31:54;100108.00;;;4.20;nan
36980;BME280;22891;50.562;7.272;2023-02-01T00:34:20;100114.00;;;4.03;nan
36980;BME280;22891;50.562;7.272;2023-02-01T00:36:46;100112.00;;;3.86;nan
36980;BME280;22891;50.562;7.272;2023-02-01T00:39:13;100110.00;;;3.94;nan
36980;BME280;22891;50.562;7.272;2023-02-01T00:41:39;100099.00;;;4.13;nan
36980;BME280;22891;50.562;7.272;2023-02-01T00:44:05;100089.00;;;4.22;nan
36980;BME280;22891;50.562;7.272;2023-02-01T00:46:32;100084.00;;;4.22;nan
36980;BME280;22891;50.562;7.272;2023-02-01T00:48:58;100093.00;;;4.04;nan
36980;BME280;22891;50.562;7.272;2023-02-01T00:51:28;100097.00;;;3.86;nan
36980;BME280;22891;50.562;7.272;2023-02-01T00:53:54;100079.00;;;3.82;nan
36980;BME280;22891;50.562;7.272;2023-02-01T00:56:19;100091.00;;;3.80;nan
36980;BME280;22891;50.562;7.272;2023-02-01T00:58:45;100079.00;;;3.89;nan
36980;BME280;22891;50.562;7.272;2023-02-01T01:01:20;100078.00;;;4.03;nan
36980;BME280;22891;50.562;7.272;2023-02-01T01:03:48;100071.00;;;4.18;nan
36980;BME280;22891;50.562;7.272;2023-02-01T01:06:22;100067.00;;;4.37;nan
36980;BME280;22891;50.562;7.272;2023-02-01T01:08:51;100074.00;;;4.13;nan
36980;BME280;22891;50.562;7.272;2023-02-01T01:11:19;100068.00;;;4.16;nan
36980;BME280;22891;50.562;7.272;2023-02-01T01:13:47;100072.00;;;4.28;nan
36980;BME280;22891;50.562;7.272;2023-02-01T01:16:13;100061.00;;;4.24;nan
36980;BME280;22891;50.562;7.272;2023-02-01T01:18:39;100074.00;;;4.23;nan
36980;BME280;22891;50.562;7.272;2023-02-01T01:21:07;100079.00;;;4.19;nan
36980;BME280;22891;50.562;7.272;2023-02-01T01:23:34;100079.00;;;4.17;nan
36980;BME280;22891;50.562;7.272;2023-02-01T01:26:00;100076.00;;;4.11;nan
36980;BME280;22891;50.562;7.272;2023-02-01T01:28:26;100070.00;;;3.98;nan
36980;BME280;22891;50.562;7.272;2023-02-01T01:30:51;100054.00;;;4.17;nan
36980;BME280;22891;50.562;7.272;2023-02-01T01:33:17;100047.00;;;4.09;nan
36980;BME280;22891;50.562;7.272;2023-02-01T01:35:43;100031.00;;;4.22;nan
36980;BME280;22891;50.562;7.272;2023-02-01T01:38:10;100016.00;;;4.28;nan
36980;BME280;22891;50.562;7.272;2023-02-01T01:40:37;100004.00;;;4.40;nan
36980;BME280;22891;50.562;7.272;2023-02-01T01:43:03;100024.00;;;4.59;nan
36980;BME280;22891;50.562;7.272;2023-02-01T01:45:31;100020.00;;;4.81;nan
36980;BME280;22891;50.562;7.272;2023-02-01T01:48:17;100036.00;;;4.91;nan
36980;BME280;22891;50.562;7.272;2023-02-01T01:50:54;100052.00;;;5.01;nan
36980;BME280;22891;50.562;7.272;2023-02-01T01:53:28;100093.00;;;5.13;nan
36980;BME280;22891;50.562;7.272;2023-02-01T01:55:57;100114.00;;;5.13;nan
36980;BME280;22891;50.562;7.272;2023-02-01T01:58:25;100134.00;;;5.25;nan
36980;BME280;22891;50.562;7.272;2023-02-01T02:04:05;100138.00;;;5.15;nan
36980;BME280;22891;50.562;7.272;2023-02-01T02:06:42;100138.00;;;5.15;nan
36980;BME280;22891;50.562;7.272;2023-02-01T02:09:11;100170.00;;;5.12;nan
36980;BME280;22891;50.562;7.272;2023-02-01T02:11:36;100190.00;;;4.99;nan
36980;BME280;22891;50.562;7.272;2023-02-01T02:14:04;100197.00;;;4.94;nan
36980;BME280;22891;50.562;7.272;2023-02-01T02:21:12;100171.00;;;5.13;nan
36980;BME280;22891;50.562;7.272;2023-02-01T02:25:39;100193.00;;;5.04;nan
36980;BME280;22891;50.562;7.272;2023-02-01T02:34:57;100226.00;;;5.24;nan
36980;BME280;22891;50.562;7.272;2023-02-01T02:38:16;100205.00;;;5.32;nan
36980;BME280;22891;50.562;7.272;2023-02-01T02:49:19;100261.00;;;5.23;nan
36980;BME280;22891;50.562;7.272;2023-02-01T02:51:53;100286.00;;;5.29;nan
36980;BME280;22891;50.562;7.272;2023-02-01T03:14:36;100366.00;;;5.30;nan
36980;BME280;22891;50.562;7.272;2023-02-01T03:17:13;100392.00;;;5.33;nan
36980;BME280;22891;50.562;7.272;2023-02-01T03:19:45;100401.00;;;5.45;nan
36980;BME280;22891;50.562;7.272;2023-02-01T03:22:26;100398.00;;;5.46;nan
36980;BME280;22891;50.562;7.272;2023-02-01T03:25:12;100409.00;;;5.54;nan
36980;BME280;22891;50.562;7.272;2023-02-01T03:41:32;100443.00;;;5.29;nan
36980;BME280;22891;50.562;7.272;2023-02-01T03:49:54;100462.00;;;5.38;nan
36980;BME280;22891;50.562;7.272;2023-02-01T03:52:51;100472.00;;;5.40;nan
36980;BME280;22891;50.562;7.272;2023-02-01T03:57:57;100493.00;;;5.34;nan
36980;BME280;22891;50.562;7.272;2023-02-01T04:04:31;100501.00;;;5.49;nan
36980;BME280;22891;50.562;7.272;2023-02-01T04:06:57;100501.00;;;5.49;nan
36980;BME280;22891;50.562;7.272;2023-02-01T04:09:22;100523.00;;;5.46;nan
36980;BME280;22891;50.562;7.272;2023-02-01T04:11:48;100527.00;;;5.36;nan
36980;BME280;22891;50.562;7.272;2023-02-01T04:14:14;100520.00;;;5.35;nan
36980;BME280;22891;50.562;7.272;2023-02-01T04:16:40;100524.00;;;5.24;nan
36980;BME280;22891;50.562;7.272;2023-02-01T04:19:06;100532.00;;;5.33;nan
